createdAt,value
2022-09-01T00:00:03.449Z,1015.52
2022-09-01T00:05:04.110Z,1015.55
2022-09-01T00:10:03.243Z,1015.55
2022-09-01T00:15:03.199Z,1015.55
2022-09-01T00:20:03.332Z,1015.55
2022-09-01T00:25:03.301Z,1015.55
2022-09-01T00:30:03.145Z,1015.55
2022-09-01T00:35:03.149Z,1015.55
2022-09-01T00:40:04.373Z,1015.61
2022-09-01T00:45:03.308Z,1015.63
2022-09-01T00:50:03.239Z,1015.65
2022-09-01T00:55:04.301Z,1015.71
2022-09-01T01:00:03.385Z,1015.71
2022-09-01T01:05:04.158Z,1015.75
2022-09-01T01:10:03.332Z,1015.7
2022-09-01T01:15:03.201Z,1015.69
2022-09-01T01:20:03.355Z,1015.62
2022-09-01T01:25:08.263Z,1015.67
2022-09-01T01:30:04.409Z,1015.67
2022-09-01T01:35:03.090Z,1015.69
2022-09-01T01:40:03.232Z,1015.66
2022-09-01T01:45:03.299Z,1015.6
2022-09-01T01:50:03.316Z,1015.59
2022-09-01T01:55:05.176Z,1015.55
2022-09-01T02:00:03.294Z,1015.58
2022-09-01T02:05:03.071Z,1015.5
2022-09-01T02:10:03.213Z,1015.51
2022-09-01T02:15:03.203Z,1015.41
2022-09-01T02:20:03.290Z,1015.44
2022-09-01T02:25:03.245Z,1015.41
2022-09-01T02:30:03.302Z,1015.37
2022-09-01T02:35:03.123Z,1015.38
2022-09-01T02:40:03.285Z,1015.35
2022-09-01T02:45:03.091Z,1015.36
2022-09-01T02:50:03.311Z,1015.33
2022-09-01T02:55:03.210Z,1015.37
2022-09-01T03:00:03.352Z,1015.41
2022-09-01T03:05:03.116Z,1015.41
2022-09-01T03:10:03.475Z,1015.37
2022-09-01T03:15:03.133Z,1015.37
2022-09-01T03:20:03.196Z,1015.36
2022-09-01T03:25:03.187Z,1015.35
2022-09-01T03:30:03.331Z,1015.36
2022-09-01T03:35:03.015Z,1015.38
2022-09-01T03:40:03.441Z,1015.53
2022-09-01T03:45:03.118Z,1015.44
2022-09-01T03:50:03.329Z,1015.56
2022-09-01T03:55:03.236Z,1015.54
2022-09-01T04:00:03.314Z,1015.56
2022-09-01T04:05:07.786Z,1015.58
2022-09-01T04:10:03.440Z,1015.63
2022-09-01T04:15:03.079Z,1015.62
2022-09-01T04:20:03.253Z,1015.62
2022-09-01T04:25:03.191Z,1015.6
2022-09-01T04:30:03.304Z,1015.48
2022-09-01T04:35:03.325Z,1015.39
2022-09-01T04:40:03.284Z,1015.33
2022-09-01T04:45:03.171Z,1015.27
2022-09-01T04:50:03.195Z,1015.21
2022-09-01T04:55:03.327Z,1015.09
2022-09-01T05:00:03.341Z,1014.97
2022-09-01T05:05:03.229Z,1014.85
2022-09-01T05:10:03.641Z,1014.74
2022-09-01T05:15:03.059Z,1014.64
2022-09-01T05:20:03.245Z,1014.59
2022-09-01T05:25:03.299Z,1014.62
2022-09-01T05:30:03.245Z,1014.57
2022-09-01T05:35:03.215Z,1014.53
2022-09-01T05:40:03.414Z,1014.51
2022-09-01T05:45:03.171Z,1014.47
2022-09-01T05:50:03.221Z,1014.43
2022-09-01T05:55:03.139Z,1014.41
2022-09-01T06:00:03.334Z,1014.38
2022-09-01T06:05:03.278Z,1014.33
2022-09-01T06:10:03.263Z,1014.36
2022-09-01T06:15:03.329Z,1014.29
2022-09-01T06:20:03.235Z,1014.33
2022-09-01T06:25:03.358Z,1014.34
2022-09-01T06:30:03.448Z,1014.33
2022-09-01T06:35:03.229Z,1014.33
2022-09-01T06:40:03.510Z,1014.35
2022-09-01T06:45:03.088Z,1014.36
2022-09-01T06:50:03.255Z,1014.32
2022-09-01T06:55:07.210Z,1014.3
2022-09-01T07:00:03.324Z,1014.26
2022-09-01T07:05:03.209Z,1014.26
2022-09-01T07:10:17.916Z,1014.27
2022-09-01T07:25:11.663Z,1014.25
2022-09-01T07:30:03.280Z,1014.3
2022-09-01T07:35:03.229Z,1014.36
2022-09-01T07:55:03.131Z,1014.44
2022-09-01T08:00:03.243Z,1014.42
2022-09-01T08:05:03.314Z,1014.44
2022-09-01T08:10:03.361Z,1014.51
2022-09-01T08:20:03.305Z,1014.44
2022-09-01T08:25:03.143Z,1014.42
2022-09-01T08:30:03.241Z,1014.4
2022-09-01T08:35:03.153Z,1014.45
2022-09-01T08:40:03.995Z,1014.47
2022-09-01T08:45:03.069Z,1014.47
2022-09-01T08:50:05.971Z,1014.51
2022-09-01T08:55:03.521Z,1014.57
2022-09-01T09:00:03.331Z,1014.64
2022-09-01T09:05:15.387Z,1014.72
2022-09-01T09:10:03.071Z,1014.75
2022-09-01T09:15:03.041Z,1014.82
2022-09-01T09:20:03.174Z,1014.82
2022-09-01T09:25:03.290Z,1014.87
2022-09-01T09:30:09.097Z,1014.95
2022-09-01T09:35:03.188Z,1015.03
2022-09-01T09:40:03.246Z,1015.1
2022-09-01T09:45:03.044Z,1015.18
2022-09-01T09:50:05.247Z,1015.27
2022-09-01T09:55:03.824Z,1015.37
2022-09-01T10:00:03.245Z,1015.48
2022-09-01T10:05:03.256Z,1015.54
2022-09-01T10:10:03.355Z,1015.55
2022-09-01T10:15:04.592Z,1015.57
2022-09-01T10:20:03.173Z,1015.68
2022-09-01T10:25:03.396Z,1015.81
2022-09-01T10:30:21.087Z,1015.84
2022-09-01T10:35:03.187Z,1015.85
2022-09-01T10:40:03.404Z,1015.91
2022-09-01T10:45:03.169Z,1015.98
2022-09-01T10:50:07.583Z,1016.06
2022-09-01T10:55:03.106Z,1016.06
2022-09-01T11:00:03.686Z,1016.15
2022-09-01T11:05:03.277Z,1016.26
2022-09-01T11:10:10.969Z,1016.29
2022-09-01T11:15:03.088Z,1016.34
2022-09-01T11:20:03.069Z,1016.31
2022-09-01T11:25:07.324Z,1016.36
2022-09-01T11:30:03.223Z,1016.33
2022-09-01T11:35:03.208Z,1016.35
2022-09-01T11:40:03.410Z,1016.37
2022-09-01T11:45:03.215Z,1016.34
2022-09-01T11:50:03.359Z,1016.36
2022-09-01T11:55:03.155Z,1016.38
2022-09-01T12:00:03.230Z,1016.41
2022-09-01T12:05:03.171Z,1016.45
2022-09-01T12:10:03.315Z,1016.46
2022-09-01T12:15:06.843Z,1016.37
2022-09-01T12:20:03.339Z,1016.4
2022-09-01T12:25:03.126Z,1016.38
2022-09-01T12:30:03.297Z,1016.39
2022-09-01T12:35:09.551Z,1016.41
2022-09-01T12:40:03.351Z,1016.44
2022-09-01T12:45:03.228Z,1016.43
2022-09-01T12:50:03.639Z,1016.44
2022-09-01T12:55:03.128Z,1016.39
2022-09-01T13:00:03.254Z,1016.39
2022-09-01T13:05:03.141Z,1016.33
2022-09-01T13:10:03.299Z,1016.29
2022-09-01T13:15:03.541Z,1016.25
2022-09-01T13:20:03.187Z,1016.19
2022-09-01T13:25:08.139Z,1016.22
2022-09-01T13:30:03.257Z,1016.17
2022-09-01T13:35:03.280Z,1016.17
2022-09-01T13:40:03.381Z,1016.14
2022-09-01T13:45:03.249Z,1016.09
2022-09-01T13:50:08.155Z,1015.97
2022-09-01T13:55:03.163Z,1015.97
2022-09-01T14:00:03.265Z,1015.93
2022-09-01T14:05:03.267Z,1015.84
2022-09-01T14:10:03.295Z,1015.74
2022-09-01T14:15:11.838Z,1015.63
2022-09-01T14:20:03.077Z,1015.56
2022-09-01T14:25:03.109Z,1015.41
2022-09-01T14:30:03.195Z,1015.31
2022-09-01T14:35:03.169Z,1015.24
2022-09-01T14:40:03.735Z,1015.21
2022-09-01T14:45:03.247Z,1015.15
2022-09-01T14:50:04.224Z,1015.09
2022-09-01T14:55:03.037Z,1014.89
2022-09-01T15:00:03.345Z,1014.81
2022-09-01T15:05:03.227Z,1014.74
2022-09-01T15:10:03.327Z,1014.67
2022-09-01T15:15:03.204Z,1014.6
2022-09-01T15:20:03.439Z,1014.53
2022-09-01T15:25:03.081Z,1014.47
2022-09-01T15:30:03.308Z,1014.41
2022-09-01T15:35:03.137Z,1014.32
2022-09-01T15:40:03.298Z,1014.35
2022-09-01T15:45:03.051Z,1014.23
2022-09-01T15:50:03.350Z,1014.09
2022-09-01T15:55:03.073Z,1014.04
2022-09-01T16:00:03.306Z,1013.94
2022-09-01T16:05:03.132Z,1013.88
2022-09-01T16:10:03.303Z,1013.82
2022-09-01T16:15:03.206Z,1013.62
2022-09-01T16:20:03.385Z,1013.52
2022-09-01T16:25:03.067Z,1013.36
2022-09-01T16:30:03.155Z,1013.26
2022-09-01T16:35:03.221Z,1013.13
2022-09-01T16:40:04.850Z,1013.06
2022-09-01T16:45:03.197Z,1012.91
2022-09-01T16:50:03.352Z,1012.75
2022-09-01T16:55:03.080Z,1012.63
2022-09-01T17:00:03.168Z,1012.5
2022-09-01T17:05:03.413Z,1012.42
2022-09-01T17:10:03.271Z,1012.22
2022-09-01T17:15:03.222Z,1012.11
2022-09-01T17:20:03.223Z,1012.01
2022-09-01T17:30:03.144Z,1011.79
2022-09-01T17:35:03.095Z,1011.7
2022-09-01T17:40:03.389Z,1011.5
2022-09-01T17:45:03.206Z,1011.48
2022-09-01T17:50:03.371Z,1011.39
2022-09-01T17:55:03.121Z,1011.28
2022-09-01T18:00:03.133Z,1011.13
2022-09-01T18:05:03.181Z,1011.01
2022-09-01T18:10:03.437Z,1010.99
2022-09-01T18:15:04.270Z,1010.84
2022-09-01T18:20:03.276Z,1010.86
2022-09-01T18:25:03.326Z,1010.75
2022-09-01T18:30:03.122Z,1010.65
2022-09-01T18:35:03.113Z,1010.59
2022-09-01T18:40:03.410Z,1010.45
2022-09-01T18:45:03.306Z,1010.3
2022-09-01T18:50:03.368Z,1010.22
2022-09-01T18:55:03.079Z,1010.18
2022-09-01T19:00:04.203Z,1010.06
2022-09-01T19:05:03.138Z,1009.96
2022-09-01T19:10:08.238Z,1009.97
2022-09-01T19:15:03.902Z,1009.91
2022-09-01T19:20:03.348Z,1009.89
2022-09-01T19:25:03.281Z,1009.81
2022-09-01T19:30:03.250Z,1009.78
2022-09-01T19:35:03.137Z,1009.7
2022-09-01T19:40:03.492Z,1009.65
2022-09-01T19:45:06.763Z,1009.57
2022-09-01T19:50:03.417Z,1009.5
2022-09-01T19:55:03.096Z,1009.49
2022-09-01T20:00:03.136Z,1009.43
2022-09-01T20:05:03.250Z,1009.53
2022-09-01T20:10:03.377Z,1009.52
2022-09-01T20:15:03.242Z,1009.53
2022-09-01T20:20:03.373Z,1009.52
2022-09-01T20:25:08.386Z,1009.51
2022-09-01T20:30:03.192Z,1009.55
2022-09-01T20:35:03.165Z,1009.61
2022-09-01T20:40:03.421Z,1009.57
2022-09-01T20:45:03.211Z,1009.61
2022-09-01T20:50:03.387Z,1009.65
2022-09-01T20:55:03.235Z,1009.7
2022-09-01T21:00:03.193Z,1009.74
2022-09-01T21:05:04.198Z,1009.77
2022-09-01T21:10:04.808Z,1009.87
2022-09-01T21:15:03.229Z,1009.9
2022-09-01T21:20:03.335Z,1009.95
2022-09-01T21:25:03.267Z,1010.06
2022-09-01T21:30:03.201Z,1010.13
2022-09-01T21:35:03.143Z,1010.22
2022-09-01T21:40:03.273Z,1010.29
2022-09-01T21:45:04.278Z,1010.33
2022-09-01T21:50:03.310Z,1010.41
2022-09-01T21:55:03.149Z,1010.46
2022-09-01T22:00:03.197Z,1010.5
2022-09-01T22:05:03.125Z,1010.58
2022-09-01T22:10:03.289Z,1010.61
2022-09-01T22:15:03.254Z,1010.63
2022-09-01T22:20:03.429Z,1010.7
2022-09-01T22:25:03.264Z,1010.77
2022-09-01T22:30:03.182Z,1010.77
2022-09-01T22:35:04.128Z,1010.9
2022-09-01T22:40:03.241Z,1010.9
2022-09-01T22:45:03.257Z,1011.0
2022-09-01T22:50:03.246Z,1011.06
2022-09-01T22:55:03.033Z,1011.11
2022-09-01T23:00:03.157Z,1011.09
2022-09-01T23:05:03.111Z,1011.13
2022-09-01T23:10:03.254Z,1011.22
2022-09-01T23:15:04.268Z,1011.23
2022-09-01T23:20:03.328Z,1011.24
2022-09-01T23:25:03.276Z,1011.35
2022-09-01T23:30:03.310Z,1011.41
2022-09-01T23:35:03.095Z,1011.43
2022-09-01T23:40:03.230Z,1011.48
2022-09-01T23:45:03.195Z,1011.55
2022-09-01T23:50:03.321Z,1011.55
2022-09-01T23:55:08.310Z,1011.59
